createdAt,value
2022-09-06T00:00:26.486Z,12.05
2022-09-06T00:03:11.866Z,11.35
2022-09-06T00:05:57.473Z,10.27
2022-09-06T00:08:47.510Z,12.57
2022-09-06T00:11:32.998Z,14.35
2022-09-06T00:14:18.483Z,12.23
2022-09-06T00:17:04.255Z,12.18
2022-09-06T00:19:49.773Z,9.98
2022-09-06T00:22:36.489Z,11.05
2022-09-06T00:25:22.239Z,10.70
2022-09-06T00:28:07.525Z,16.15
2022-09-06T00:30:53.094Z,12.45
2022-09-06T00:33:38.961Z,16.13
2022-09-06T00:36:24.558Z,14.85
2022-09-06T00:39:10.337Z,14.68
2022-09-06T00:41:55.865Z,11.02
2022-09-06T00:44:41.519Z,12.25
2022-09-06T00:47:28.086Z,14.10
2022-09-06T00:50:17.809Z,15.77
2022-09-06T00:53:03.206Z,14.88
2022-09-06T00:55:48.826Z,14.10
2022-09-06T00:58:34.633Z,13.60
2022-09-06T01:01:20.406Z,14.93
2022-09-06T01:04:06.654Z,15.85
2022-09-06T01:07:34.553Z,12.27
2022-09-06T01:10:37.239Z,16.67
2022-09-06T01:13:31.593Z,12.23
2022-09-06T01:16:39.341Z,14.48
2022-09-06T01:19:33.064Z,12.70
2022-09-06T01:22:44.704Z,18.02
2022-09-06T01:25:54.349Z,16.58
2022-09-06T01:28:46.652Z,13.55
2022-09-06T01:31:37.459Z,18.50
2022-09-06T01:34:52.483Z,13.32
2022-09-06T01:37:38.172Z,14.02
2022-09-06T01:40:23.815Z,14.27
2022-09-06T01:43:12.903Z,11.00
2022-09-06T01:46:17.717Z,12.45
2022-09-06T01:49:18.346Z,13.55
2022-09-06T01:52:30.535Z,9.50
2022-09-06T01:55:28.218Z,15.00
2022-09-06T01:58:38.439Z,12.10
2022-09-06T02:01:56.318Z,11.70
2022-09-06T02:04:51.809Z,12.30
2022-09-06T02:07:37.919Z,12.00
2022-09-06T02:10:49.275Z,11.68
2022-09-06T02:13:45.899Z,14.30
2022-09-06T02:16:34.361Z,12.25
2022-09-06T02:19:36.710Z,10.55
2022-09-06T02:22:27.431Z,13.90
2022-09-06T02:25:31.694Z,10.98
2022-09-06T02:28:17.878Z,16.50
2022-09-06T02:31:12.215Z,12.15
2022-09-06T02:33:58.488Z,12.25
2022-09-06T02:36:44.395Z,10.93
2022-09-06T02:39:29.842Z,10.60
2022-09-06T02:42:17.560Z,11.55
2022-09-06T02:45:02.889Z,9.45
2022-09-06T02:47:48.406Z,12.07
2022-09-06T02:50:33.768Z,13.10
2022-09-06T02:53:19.469Z,13.55
2022-09-06T02:56:05.130Z,13.02
2022-09-06T02:58:50.334Z,13.32
2022-09-06T03:01:35.816Z,14.63
2022-09-06T03:04:21.308Z,10.52
2022-09-06T03:07:06.900Z,12.77
2022-09-06T03:09:52.448Z,16.70
2022-09-06T03:12:38.214Z,12.85
2022-09-06T03:15:23.589Z,15.50
2022-09-06T03:18:09.099Z,12.90
2022-09-06T03:20:55.372Z,15.27
2022-09-06T03:23:40.602Z,13.82
2022-09-06T03:26:26.760Z,16.63
2022-09-06T03:29:12.455Z,15.10
2022-09-06T03:31:58.147Z,14.02
2022-09-06T03:34:43.887Z,13.20
2022-09-06T03:37:29.183Z,13.82
2022-09-06T03:40:14.708Z,12.68
2022-09-06T03:43:00.219Z,16.30
2022-09-06T03:45:51.112Z,13.68
2022-09-06T03:48:36.895Z,12.10
2022-09-06T03:51:22.324Z,14.82
2022-09-06T03:54:07.890Z,17.00
2022-09-06T03:56:53.325Z,15.43
2022-09-06T03:59:38.712Z,15.30
2022-09-06T04:02:24.367Z,12.80
2022-09-06T04:05:10.160Z,13.70
2022-09-06T04:07:55.638Z,19.67
2022-09-06T04:10:41.208Z,16.40
2022-09-06T04:13:28.505Z,12.82
2022-09-06T04:16:14.357Z,16.95
2022-09-06T04:19:01.923Z,17.42
2022-09-06T04:21:47.171Z,14.98
2022-09-06T04:24:32.636Z,18.52
2022-09-06T04:27:18.243Z,14.50
2022-09-06T04:30:04.237Z,15.18
2022-09-06T04:32:49.611Z,16.23
2022-09-06T04:35:35.065Z,15.57
2022-09-06T04:38:20.647Z,19.60
2022-09-06T04:41:07.330Z,19.85
2022-09-06T04:43:52.436Z,18.90
2022-09-06T04:46:40.943Z,19.35
2022-09-06T04:49:26.578Z,20.67
2022-09-06T04:52:12.292Z,18.00
2022-09-06T04:54:57.781Z,16.50
2022-09-06T04:57:46.557Z,19.50
2022-09-06T05:00:35.483Z,15.88
2022-09-06T05:03:21.289Z,18.85
2022-09-06T05:06:09.694Z,18.05
2022-09-06T05:08:54.903Z,20.23
2022-09-06T05:11:40.442Z,17.92
2022-09-06T05:14:27.317Z,19.55
2022-09-06T05:17:14.766Z,19.63
2022-09-06T05:19:59.887Z,26.20
2022-09-06T05:22:54.283Z,24.67
2022-09-06T05:25:39.802Z,16.50
2022-09-06T05:28:25.193Z,25.08
2022-09-06T05:31:13.369Z,29.60
2022-09-06T05:33:59.805Z,21.17
2022-09-06T05:36:46.233Z,26.95
2022-09-06T05:39:31.669Z,20.25
2022-09-06T05:42:19.256Z,25.77
2022-09-06T05:45:06.621Z,29.27
2022-09-06T05:47:52.399Z,24.98
2022-09-06T05:50:37.715Z,21.15
2022-09-06T05:53:23.179Z,27.65
2022-09-06T05:56:09.626Z,25.45
2022-09-06T05:58:54.886Z,26.15
2022-09-06T06:01:56.765Z,25.10
2022-09-06T06:04:41.988Z,23.13
2022-09-06T06:07:27.351Z,26.77
2022-09-06T06:10:13.010Z,24.67
2022-09-06T06:12:58.426Z,26.02
2022-09-06T06:15:43.935Z,23.85
2022-09-06T06:18:29.645Z,24.48
2022-09-06T06:21:16.007Z,20.80
2022-09-06T06:24:06.292Z,25.30
2022-09-06T06:26:51.594Z,22.85
2022-09-06T06:29:37.116Z,24.75
2022-09-06T06:32:22.535Z,29.85
2022-09-06T06:35:09.581Z,21.58
2022-09-06T06:37:56.394Z,25.13
2022-09-06T06:40:45.970Z,28.75
2022-09-06T06:43:36.385Z,22.67
2022-09-06T06:46:23.514Z,17.70
2022-09-06T06:49:09.254Z,16.98
2022-09-06T06:51:54.627Z,19.10
2022-09-06T06:54:40.058Z,20.95
2022-09-06T06:57:25.466Z,16.70
2022-09-06T07:00:11.389Z,18.60
2022-09-06T07:02:57.227Z,20.25
2022-09-06T07:08:52.399Z,23.05
2022-09-06T07:11:38.403Z,21.63
2022-09-06T07:14:24.010Z,18.13
2022-09-06T07:17:09.471Z,19.83
2022-09-06T07:26:17.017Z,15.80
2022-09-06T07:29:04.590Z,14.15
2022-09-06T07:34:55.632Z,13.98
2022-09-06T07:37:41.332Z,11.93
2022-09-06T07:40:29.052Z,16.17
2022-09-06T07:43:15.255Z,18.02
2022-09-06T07:46:05.044Z,15.57
2022-09-06T07:48:50.868Z,14.00
2022-09-06T07:51:36.090Z,13.48
2022-09-06T07:54:31.189Z,19.65
2022-09-06T07:57:17.162Z,11.60
2022-09-06T08:00:04.080Z,16.88
2022-09-06T08:02:49.450Z,16.45
2022-09-06T08:11:46.032Z,10.90
2022-09-06T08:14:31.404Z,12.02
2022-09-06T08:17:17.188Z,10.48
2022-09-06T08:20:04.104Z,16.13
2022-09-06T08:22:49.866Z,14.23
2022-09-06T08:25:36.450Z,9.23
2022-09-06T08:28:24.533Z,11.93
2022-09-06T08:31:14.719Z,13.90
2022-09-06T08:34:01.605Z,12.38
2022-09-06T08:36:46.810Z,12.25
2022-09-06T08:39:32.251Z,15.15
2022-09-06T08:42:17.727Z,9.50
2022-09-06T08:45:08.919Z,12.68
2022-09-06T08:47:55.837Z,12.35
2022-09-06T08:50:47.303Z,13.73
2022-09-06T08:53:36.893Z,12.43
2022-09-06T08:56:27.802Z,14.32
2022-09-06T08:59:17.648Z,12.27
2022-09-06T09:02:16.791Z,14.13
2022-09-06T09:05:06.205Z,14.85
2022-09-06T09:08:07.006Z,15.23
2022-09-06T09:11:04.787Z,12.07
2022-09-06T09:14:05.015Z,13.27
2022-09-06T09:16:55.012Z,15.25
2022-09-06T09:19:42.190Z,15.25
2022-09-06T09:22:28.218Z,8.68
2022-09-06T09:25:20.622Z,8.35
2022-09-06T09:28:17.694Z,10.53
2022-09-06T09:31:03.503Z,11.40
2022-09-06T09:33:49.034Z,10.32
2022-09-06T09:36:34.623Z,10.25
2022-09-06T09:39:20.056Z,10.80
2022-09-06T09:42:09.570Z,12.07
2022-09-06T09:44:56.128Z,8.65
2022-09-06T09:47:41.528Z,13.40
2022-09-06T09:50:32.659Z,11.18
2022-09-06T09:53:22.090Z,5.88
2022-09-06T09:56:08.072Z,10.65
2022-09-06T09:58:56.078Z,11.73
2022-09-06T10:01:41.674Z,11.40
2022-09-06T10:04:44.559Z,8.77
2022-09-06T10:07:41.559Z,13.07
2022-09-06T10:10:34.086Z,13.73
2022-09-06T10:16:07.753Z,11.82
2022-09-06T10:18:53.368Z,16.48
2022-09-06T10:21:39.120Z,9.52
2022-09-06T10:24:52.043Z,15.10
2022-09-06T10:28:10.396Z,12.98
2022-09-06T10:31:16.160Z,9.85
2022-09-06T10:34:35.386Z,10.73
2022-09-06T10:37:25.193Z,12.20
2022-09-06T10:40:12.616Z,11.50
2022-09-06T10:43:01.395Z,8.82
2022-09-06T10:46:02.258Z,13.13
2022-09-06T10:48:48.613Z,13.95
2022-09-06T10:51:46.480Z,14.90
2022-09-06T10:54:35.703Z,12.73
2022-09-06T11:00:39.233Z,5.82
2022-09-06T11:06:52.703Z,11.65
2022-09-06T11:09:52.239Z,9.10
2022-09-06T11:12:59.732Z,10.15
2022-09-06T11:16:00.621Z,12.30
2022-09-06T11:18:54.065Z,9.38
2022-09-06T11:22:18.230Z,15.05
2022-09-06T11:25:41.725Z,16.15
2022-09-06T11:28:36.623Z,14.27
2022-09-06T11:34:38.490Z,9.75
2022-09-06T11:37:32.791Z,12.45
2022-09-06T11:43:18.741Z,9.73
2022-09-06T11:46:04.505Z,9.50
2022-09-06T11:49:04.915Z,9.43
2022-09-06T11:51:50.319Z,8.25
2022-09-06T11:54:44.563Z,14.55
2022-09-06T11:57:31.300Z,9.00
2022-09-06T12:00:23.786Z,11.68
2022-09-06T12:06:37.558Z,10.05
2022-09-06T12:09:33.246Z,12.40
2022-09-06T12:12:45.769Z,12.52
2022-09-06T12:15:54.509Z,14.52
2022-09-06T12:18:43.094Z,9.82
2022-09-06T12:21:41.426Z,10.32
2022-09-06T12:24:36.094Z,14.77
2022-09-06T12:27:24.074Z,13.13
2022-09-06T12:30:12.467Z,12.35
2022-09-06T12:32:58.693Z,13.15
2022-09-06T12:36:03.321Z,9.98
2022-09-06T12:39:01.468Z,12.93
2022-09-06T12:41:57.308Z,8.43
2022-09-06T12:44:51.028Z,12.50
2022-09-06T12:47:37.910Z,8.75
2022-09-06T12:50:26.011Z,11.40
2022-09-06T12:53:24.983Z,8.23
2022-09-06T12:56:14.574Z,8.75
2022-09-06T12:59:23.504Z,9.38
2022-09-06T13:02:16.111Z,12.63
2022-09-06T13:05:06.266Z,6.82
2022-09-06T13:07:55.372Z,12.00
2022-09-06T13:10:44.829Z,9.57
2022-09-06T13:13:30.842Z,10.43
2022-09-06T13:16:20.468Z,9.05
2022-09-06T13:19:38.015Z,10.77
2022-09-06T13:22:45.415Z,9.45
2022-09-06T13:25:31.139Z,9.52
2022-09-06T13:28:27.814Z,4.50
2022-09-06T13:31:21.670Z,11.05
2022-09-06T13:34:07.576Z,6.82
2022-09-06T13:37:01.556Z,9.00
2022-09-06T13:39:46.786Z,10.02
2022-09-06T13:42:35.953Z,12.05
2022-09-06T13:45:27.394Z,6.35
2022-09-06T13:48:28.290Z,9.52
2022-09-06T13:51:14.844Z,10.23
2022-09-06T13:54:14.178Z,6.63
2022-09-06T13:57:01.694Z,11.20
2022-09-06T13:59:47.389Z,8.98
2022-09-06T14:02:33.617Z,6.10
2022-09-06T14:05:19.412Z,9.15
2022-09-06T14:08:05.130Z,7.97
2022-09-06T14:10:51.726Z,9.43
2022-09-06T14:13:37.281Z,8.55
2022-09-06T14:16:23.069Z,5.85
2022-09-06T14:19:08.847Z,9.75
2022-09-06T14:21:54.287Z,8.80
2022-09-06T14:24:39.982Z,14.13
2022-09-06T14:27:25.481Z,10.93
2022-09-06T14:30:11.643Z,10.00
2022-09-06T14:32:57.545Z,8.57
2022-09-06T14:35:43.107Z,8.43
2022-09-06T14:38:28.942Z,14.50
2022-09-06T14:41:15.592Z,8.10
2022-09-06T14:44:01.397Z,8.95
2022-09-06T14:46:48.686Z,11.18
2022-09-06T14:49:34.314Z,12.63
2022-09-06T14:52:20.044Z,10.57
2022-09-06T14:55:06.117Z,19.27
2022-09-06T14:57:51.452Z,8.95
2022-09-06T15:00:37.241Z,11.90
2022-09-06T15:03:22.406Z,10.32
2022-09-06T15:06:08.366Z,9.18
2022-09-06T15:08:59.013Z,13.05
2022-09-06T15:11:48.592Z,8.13
2022-09-06T15:14:34.568Z,8.15
2022-09-06T15:17:19.819Z,9.07
2022-09-06T15:20:05.896Z,9.75
2022-09-06T15:23:09.028Z,11.75
2022-09-06T15:25:57.016Z,16.45
2022-09-06T15:28:46.065Z,14.95
2022-09-06T15:31:34.144Z,11.10
2022-09-06T15:34:25.904Z,17.45
2022-09-06T15:37:11.583Z,13.07
2022-09-06T15:39:57.437Z,11.02
2022-09-06T15:42:43.393Z,12.60
2022-09-06T15:45:29.706Z,13.32
2022-09-06T15:48:17.841Z,10.63
2022-09-06T15:51:03.463Z,10.80
2022-09-06T15:53:49.043Z,14.60
2022-09-06T15:56:35.165Z,13.15
2022-09-06T15:59:20.784Z,11.10
2022-09-06T16:02:07.662Z,13.73
2022-09-06T16:04:52.996Z,13.07
2022-09-06T16:07:40.991Z,9.57
2022-09-06T16:10:26.553Z,9.73
2022-09-06T16:13:12.024Z,11.98
2022-09-06T16:16:02.543Z,12.85
2022-09-06T16:18:47.945Z,14.77
2022-09-06T16:21:34.769Z,15.43
2022-09-06T16:24:21.301Z,16.42
2022-09-06T16:27:07.175Z,19.80
2022-09-06T16:29:52.647Z,14.52
2022-09-06T16:32:38.112Z,17.35
2022-09-06T16:35:23.593Z,22.45
2022-09-06T16:38:09.755Z,16.80
2022-09-06T16:40:55.158Z,15.98
2022-09-06T16:43:40.707Z,17.80
2022-09-06T16:46:29.851Z,17.30
2022-09-06T16:49:17.397Z,16.98
2022-09-06T16:52:03.389Z,18.13
2022-09-06T16:54:48.813Z,14.95
2022-09-06T16:57:34.745Z,16.40
2022-09-06T17:00:20.150Z,16.15
2022-09-06T17:03:05.365Z,12.15
2022-09-06T17:05:52.247Z,12.63
2022-09-06T17:08:37.651Z,16.95
2022-09-06T17:11:23.381Z,11.07
2022-09-06T17:14:08.885Z,9.18
2022-09-06T17:17:07.026Z,14.52
2022-09-06T17:19:52.721Z,11.32
2022-09-06T17:22:38.402Z,5.85
2022-09-06T17:25:24.026Z,10.13
2022-09-06T17:28:09.427Z,7.18
2022-09-06T17:30:55.517Z,9.77
2022-09-06T17:33:40.819Z,9.52
2022-09-06T17:36:29.852Z,10.75
2022-09-06T17:39:18.243Z,9.43
2022-09-06T17:42:04.368Z,9.50
2022-09-06T17:44:49.645Z,9.77
2022-09-06T17:47:35.257Z,11.02
2022-09-06T17:50:20.878Z,11.18
2022-09-06T17:53:06.214Z,5.05
2022-09-06T17:55:52.279Z,8.13
2022-09-06T17:58:39.022Z,9.88
2022-09-06T18:01:26.597Z,6.68
2022-09-06T18:04:13.771Z,13.38
2022-09-06T18:06:59.120Z,12.45
2022-09-06T18:09:44.905Z,9.07
2022-09-06T18:12:31.494Z,7.55
2022-09-06T18:15:17.731Z,10.52
2022-09-06T18:18:03.901Z,10.65
2022-09-06T18:20:51.267Z,10.73
2022-09-06T18:23:36.591Z,11.35
2022-09-06T18:26:23.032Z,10.45
2022-09-06T18:29:12.036Z,8.32
2022-09-06T18:31:57.851Z,13.25
2022-09-06T18:34:43.194Z,7.28
2022-09-06T18:37:28.596Z,12.73
2022-09-06T18:40:14.317Z,12.38
2022-09-06T18:42:59.991Z,13.27
2022-09-06T18:45:46.051Z,8.65
2022-09-06T18:48:33.108Z,9.85
2022-09-06T18:51:18.446Z,8.10
2022-09-06T18:54:04.137Z,7.47
2022-09-06T18:56:52.394Z,13.48
2022-09-06T18:59:37.935Z,9.93
2022-09-06T19:02:25.576Z,7.10
2022-09-06T19:05:11.620Z,8.80
2022-09-06T19:07:57.062Z,10.25
2022-09-06T19:10:43.063Z,7.22
2022-09-06T19:13:32.547Z,10.05
2022-09-06T19:16:19.000Z,8.77
2022-09-06T19:19:06.877Z,11.75
2022-09-06T19:21:52.238Z,10.98
2022-09-06T19:24:39.239Z,7.85
2022-09-06T19:27:24.859Z,7.88
2022-09-06T19:30:11.018Z,10.43
2022-09-06T19:32:56.441Z,12.07
2022-09-06T19:35:55.866Z,8.77
2022-09-06T19:39:02.497Z,7.82
2022-09-06T19:41:49.099Z,9.43
2022-09-06T19:44:34.727Z,7.30
2022-09-06T19:47:20.388Z,8.43
2022-09-06T19:50:06.764Z,7.50
2022-09-06T19:52:52.462Z,11.60
2022-09-06T19:55:38.010Z,7.65
2022-09-06T19:58:25.838Z,7.47
2022-09-06T20:01:17.948Z,11.70
2022-09-06T20:04:07.991Z,9.25
2022-09-06T20:06:53.882Z,13.13
2022-09-06T20:09:40.118Z,9.68
2022-09-06T20:12:25.618Z,8.10
2022-09-06T20:15:11.772Z,9.00
2022-09-06T20:17:57.316Z,8.10
2022-09-06T20:20:43.534Z,13.23
2022-09-06T20:23:30.218Z,9.73
2022-09-06T20:26:15.884Z,11.23
2022-09-06T20:29:02.411Z,10.50
2022-09-06T20:31:47.685Z,8.80
2022-09-06T20:34:33.755Z,12.13
2022-09-06T20:37:18.948Z,9.70
2022-09-06T20:40:06.657Z,13.75
2022-09-06T20:42:52.931Z,13.63
2022-09-06T20:45:38.770Z,9.75
2022-09-06T20:48:24.041Z,17.80
2022-09-06T20:51:12.715Z,9.32
2022-09-06T20:54:00.525Z,15.98
2022-09-06T20:56:45.597Z,11.93
2022-09-06T20:59:31.161Z,13.00
2022-09-06T21:02:16.915Z,15.52
2022-09-06T21:05:02.568Z,15.93
2022-09-06T21:07:47.991Z,11.40
2022-09-06T21:10:33.537Z,12.02
2022-09-06T21:13:18.962Z,12.27
2022-09-06T21:16:05.621Z,9.02
2022-09-06T21:18:56.447Z,19.00
2022-09-06T21:21:42.446Z,11.20
2022-09-06T21:24:27.971Z,10.95
2022-09-06T21:27:13.483Z,13.25
2022-09-06T21:29:58.872Z,8.32
2022-09-06T21:32:44.382Z,13.20
2022-09-06T21:35:29.743Z,20.08
2022-09-06T21:38:15.724Z,15.70
2022-09-06T21:41:01.026Z,15.00
2022-09-06T21:43:46.618Z,13.00
2022-09-06T21:46:34.945Z,19.60
2022-09-06T21:49:20.289Z,8.45
2022-09-06T21:52:05.948Z,11.32
2022-09-06T21:54:51.573Z,16.05
2022-09-06T21:57:37.019Z,19.23
2022-09-06T22:00:22.454Z,14.43
2022-09-06T22:03:09.358Z,13.50
2022-09-06T22:05:55.301Z,11.63
2022-09-06T22:08:43.966Z,12.63
2022-09-06T22:11:32.166Z,14.80
2022-09-06T22:14:17.783Z,13.20
2022-09-06T22:17:03.271Z,12.48
2022-09-06T22:19:48.492Z,13.77
2022-09-06T22:22:34.526Z,19.25
2022-09-06T22:25:20.023Z,14.25
2022-09-06T22:28:05.769Z,13.40
2022-09-06T22:30:51.386Z,13.57
2022-09-06T22:33:37.026Z,11.23
2022-09-06T22:36:26.323Z,9.82
2022-09-06T22:39:12.084Z,8.93
2022-09-06T22:42:00.811Z,14.32
2022-09-06T22:44:46.069Z,9.40
2022-09-06T22:47:31.619Z,16.88
2022-09-06T22:50:17.151Z,16.15
2022-09-06T22:53:02.821Z,13.13
2022-09-06T22:55:48.806Z,13.95
2022-09-06T22:58:37.668Z,8.70
2022-09-06T23:01:23.077Z,15.60
2022-09-06T23:04:09.821Z,6.93
2022-09-06T23:06:55.227Z,11.95
2022-09-06T23:09:40.691Z,16.80
2022-09-06T23:12:26.191Z,16.92
2022-09-06T23:15:12.084Z,10.82
2022-09-06T23:17:58.079Z,11.68
2022-09-06T23:20:43.322Z,8.93
2022-09-06T23:23:30.411Z,18.20
2022-09-06T23:26:21.284Z,12.05
2022-09-06T23:29:07.370Z,11.13
2022-09-06T23:31:53.073Z,12.65
2022-09-06T23:34:39.026Z,10.02
2022-09-06T23:37:24.227Z,12.95
2022-09-06T23:40:10.322Z,14.60
2022-09-06T23:42:55.829Z,13.73
2022-09-06T23:45:41.448Z,17.73
2022-09-06T23:48:27.284Z,9.75
2022-09-06T23:51:13.269Z,11.45
2022-09-06T23:53:59.011Z,19.15
2022-09-06T23:56:44.401Z,19.20
2022-09-06T23:59:29.996Z,10.27
